• Join FlightAware (Why Join?)
  • Login
  • US Flag 
02:49AM EDT


 

Airport Tracker/Info


-or-


 

Live Flight TrackerFlight Track Log ✈ N193PP ✈ 02-Sep-2013 ✈ KECP - KRYY

Flight Track Log - Related Links

Times and Time Zones

All times are in EDT time to prevent confusion due to time zone crossing. See the N193PP flight status page for this flight to view local times or setup timezone preferences in your user account.

Time Position Orientation Groundspeed Altitude Reporting Facility
EDT Latitude Longitude Course Direction KTS MPH feet Rate Location/Type
03:35PM 30.9206 -85.6657 11° North  Level FlightAware Approximate
03:36PM 31.0020 -85.6470 11° North  Level FlightAware Approximate
03:36PM 30.6083 -85.5547 16° North 295 339 17,300  Level Jacksonville Center
03:37PM 31.0834 -85.6282 11° North  Level FlightAware Approximate
03:37PM 30.6700 -85.4936 40° Northeast 340 391 18,500  Level Jacksonville Center
03:38PM 31.1635 -85.6009 16° North  Level Estimated
03:38PM 30.7361 -85.4303 39° Northeast 339 390 20,700  Level Jacksonville Center
03:39PM 31.2435 -85.5736 16° North  Level Estimated
03:39PM 30.8083 -85.3644 38° Northeast 326 375 21,000  Level Jacksonville Center
03:40PM 31.3236 -85.5462 16° North  Level Estimated
03:40PM 30.8850 -85.2867 41° Northeast 340 391 21,000  Level Jacksonville Center
03:41PM 31.4036 -85.5188 16° North  Level Estimated
03:41PM 30.9119 -85.1808 73° East 340 391 22,500  Level Jacksonville Center
03:42PM 30.9119 -85.0669 90° East 322 371 23,000 240 Climbing Jacksonville Center
03:43PM 30.9158 -84.9483 88° East 343 395 23,000  Level Jacksonville Center
03:44PM 30.9200 -84.8178 88° East 371 427 23,000  Level Jacksonville Center
03:45PM 30.9822 -84.7003 58° Northeast 377 434 23,000  Level Jacksonville Center
03:46PM 31.0506 -84.6022 51° Northeast 371 427 23,000  Level Jacksonville Center
03:47PM 31.1369 -84.5308 35° Northeast 366 421 23,000  Level Jacksonville Center
03:48PM 31.2392 -84.5522 350° North 332 382 23,000 -360 Level Jacksonville Center
03:49PM 31.3389 -84.5903 342° North 337 388 22,300 -360 Descending Jacksonville Center
03:51PM 31.5239 -84.6575 343° North 365 420 22,000 -120 Descending Atlanta Center
03:52PM 31.6239 -84.6925 343° North 365 420 22,000  Level Atlanta Center
03:53PM 31.7217 -84.7272 343° North 365 420 22,000  Level Atlanta Center
03:54PM 31.8197 -84.7622 343° North 364 419 22,000  Level Atlanta Center
03:55PM 31.9156 -84.7972 343° North 364 419 22,000  Level Atlanta Center
03:56PM 32.0175 -84.8325 344° North 364 419 22,000  Level Atlanta Center
03:57PM 32.1175 -84.8703 342° North 364 419 22,000  Level Atlanta Center
03:58PM 32.2175 -84.9081 342° North 364 419 22,000  Level Atlanta Center
03:59PM 32.3089 -84.9358 346° North 364 419 22,000  Level Atlanta Center
04:00PM 32.4069 -84.9714 343° North 369 425 22,000  Level Atlanta Center
04:01PM 32.5047 -85.0067 343° North 364 419 22,000 -660 Level Atlanta Center
04:02PM 32.6044 -85.0450 342° North 364 419 20,700  Descending Atlanta Center
04:03PM 32.7025 -85.0806 343° North 364 419 22,000 -1,800 Climbing Atlanta Center
04:04PM 32.8042 -85.1214 341° North 359 413 17,200 -3,120 Descending Atlanta Center
04:05PM 32.8750 -85.1444 345° North 346 398 15,800 -1,620 Descending Atlanta Center
04:06PM 32.9644 -85.1753 344° North 315 362 14,000 -1,440 Descending Atlanta Center
04:07PM 33.0414 -85.2036 343° North 298 343 13,000 -900 Descending Atlanta Center
04:08PM 33.1314 -85.1897 North 285 328 12,300 -840 Descending Atlanta Center
04:09PM 33.2089 -85.1636 16° North 285 328 11,400 -660 Descending Atlanta Center
04:10PM 33.2781 -85.1419 15° North 291 335 11,000 -240 Descending Atlanta Center
04:11PM 33.3575 -85.1183 14° North 285 328 11,000 -600 Level Atlanta Center
04:12PM 33.4328 -85.0992 12° North 280 322 9,800 -1,200 Descending Atlanta Center
04:13PM 33.5100 -85.0853 North 275 316 8,600 -1,200 Descending Atlanta Center
04:14PM 33.5833 -85.0686 11° North 275 316 7,400 -1,260 Descending Atlanta Center
04:15PM 33.6422 -85.0119 39° Northeast 268 308 6,100 -1,260 Descending Atlanta Center
04:16PM 33.6992 -84.9478 43° Northeast 263 303 4,900 -1,080 Descending Atlanta Center
04:17PM 33.7475 -84.8908 44° Northeast 251 289 4,000 -600 Descending Atlanta Center
04:17PM 33.7667 -84.8667 46° Northeast 226 260 4,000 -240 Level Atlanta TRACON
04:18PM 33.8167 -84.8167 40° Northeast 203 234 3,700 -540 Descending Atlanta TRACON
04:19PM 33.8500 -84.7667 51° Northeast 201 231 3,000 -420 Descending Atlanta TRACON
04:20PM 33.9000 -84.7333 29° Northeast 189 217 2,900 -300 Descending Atlanta TRACON
04:21PM 33.9333 -84.6833 51° Northeast 208 239 2,500 -240 Descending Atlanta TRACON
04:22PM 33.9667 -84.6333 51° Northeast 181 208 2,500 -120 Level Atlanta TRACON
04:23PM 33.9833 -84.5833 68° East 147 169 2,300 -480 Descending Atlanta TRACON
04:24PM 34.0000 -84.5667 40° Northeast 140 161 1,600 -720 Descending Atlanta TRACON